Hartland, Minnesota
Current Conditions -  °F | °C
As of 6:35 AM on Sunday 25 Jan 2015 (Local Time) from KAEL Reporting Station
Overcast Overcast  
Wind Chill: 20°   Ceiling: 1100
Heat Index: 30°   Visibility: 10mi
Dew Point: 28°   Wind: 13mph
Humidity: 93%   Direction: 30°NNE
Pressure: 29.79"   Gusts: 22mph
Location:  43.8°N, 93.49°W
Report Text: KAEL 251235Z AUTO 03011G19KT 10SM OVC011 M01/M02 A2979 RMK AO2
Loading
Personal Weather Stations






























Interactive Weather Map New forecast layout! Learn more

10-Day Weather Forecast

Advertisements
Track Severe Weather on mobile